Time;durP1;ratioP1;P1;durP2;ratioP2;P2;SDS_P1;SDS_P2;PMS_P1;PMS_P2;Temp;Humidity;BMP_temperature;BMP_pressure;BME280_temperature;BME280_humidity;BME280_pressure;Samples;Min_cycle;Max_cycle;Signal;HPM_P1;HPM_P2
2024/01/16 00:00:28;;;;;;;0.40;0.40;;;;;;;;;;1037482;28;20505;-21
2024/01/16 00:00:59;;;;;;;1.88;1.75;;;;;;;;;;1038058;28;20451;-21
2024/01/16 00:01:29;;;;;;;2.15;2.00;;;;;;;;;;1037850;28;20022;-21
2024/01/16 00:02:00;;;;;;;0.90;0.90;;;;;;;;;;1037989;28;20030;-21
2024/01/16 00:02:30;;;;;;;0.93;0.43;;;;;;;;;;1038034;28;20030;-21
2024/01/16 00:03:01;;;;;;;1.13;1.13;;;;;;;;;;1037889;28;20026;-21
2024/01/16 00:03:31;;;;;;;0.57;0.57;;;;;;;;;;1038065;28;20049;-21
2024/01/16 00:04:02;;;;;;;0.98;0.93;;;;;;;;;;1038010;28;20029;-21
2024/01/16 00:04:32;;;;;;;1.10;0.98;;;;;;;;;;1037835;28;20079;-21
2024/01/16 00:05:03;;;;;;;2.63;2.42;;;;;;;;;;1038024;28;20013;-21
2024/01/16 00:05:33;;;;;;;4.03;0.85;;;;;;;;;;1038441;28;20053;-21
2024/01/16 00:06:04;;;;;;;1.05;0.90;;;;;;;;;;1037728;28;20033;-21
2024/01/16 00:06:38;;;;;;;0.50;0.43;;;;;;;;;;1037742;28;20415;-21
2024/01/16 00:07:09;;;;;;;0.20;0.20;;;;;;;;;;1038027;28;20545;-21
2024/01/16 00:07:39;;;;;;;2.00;1.35;;;;;;;;;;1037871;28;20037;-21
2024/01/16 00:08:10;;;;;;;1.10;1.00;;;;;;;;;;1037827;28;20033;-21
2024/01/16 00:08:40;;;;;;;0.85;0.60;;;;;;;;;;1037865;28;20024;-21
2024/01/16 00:09:11;;;;;;;1.67;1.58;;;;;;;;;;1037721;28;20032;-21
2024/01/16 00:09:41;;;;;;;0.35;0.35;;;;;;;;;;1038031;28;20466;-21
2024/01/16 00:10:12;;;;;;;1.23;1.13;;;;;;;;;;1039151;28;20384;-21
2024/01/16 00:10:42;;;;;;;0.82;0.75;;;;;;;;;;1037703;28;20030;-21
2024/01/16 00:11:13;;;;;;;4.72;3.50;;;;;;;;;;1037714;28;20366;-21
2024/01/16 00:11:43;;;;;;;1.45;1.35;;;;;;;;;;1037644;28;20032;-21
2024/01/16 00:12:14;;;;;;;1.02;1.02;;;;;;;;;;1037754;28;20493;-21
2024/01/16 00:12:44;;;;;;;0.85;0.85;;;;;;;;;;1037718;28;20125;-21
2024/01/16 00:13:14;;;;;;;0.68;0.68;;;;;;;;;;1037933;28;20040;-21
2024/01/16 00:13:45;;;;;;;0.77;0.77;;;;;;;;;;1038050;28;20037;-21
2024/01/16 00:14:15;;;;;;;6.35;1.67;;;;;;;;;;1037676;28;20452;-21
2024/01/16 00:14:46;;;;;;;0.77;0.77;;;;;;;;;;1037710;28;20671;-21
2024/01/16 00:15:16;;;;;;;2.03;1.65;;;;;;;;;;1038147;28;20028;-21
2024/01/16 00:15:47;;;;;;;2.78;2.55;;;;;;;;;;1037684;28;20179;-21
2024/01/16 00:16:17;;;;;;;3.42;1.27;;;;;;;;;;1037512;28;20029;-21
2024/01/16 00:16:48;;;;;;;1.58;1.48;;;;;;;;;;1036179;28;20026;-21
2024/01/16 00:17:18;;;;;;;0.65;0.65;;;;;;;;;;1038050;28;20416;-21
2024/01/16 00:17:49;;;;;;;7.63;2.53;;;;;;;;;;1037922;28;20037;-21
2024/01/16 00:18:19;;;;;;;0.45;0.45;;;;;;;;;;1037792;28;20032;-21
2024/01/16 00:18:50;;;;;;;5.60;3.72;;;;;;;;;;1037920;28;20057;-21
2024/01/16 00:19:20;;;;;;;2.97;1.05;;;;;;;;;;1037833;28;20112;-21
2024/01/16 00:19:51;;;;;;;2.42;1.70;;;;;;;;;;1037916;28;20030;-21
2024/01/16 00:20:23;;;;;;;2.72;0.98;;;;;;;;;;1037714;28;20030;-21
2024/01/16 00:20:53;;;;;;;2.25;2.05;;;;;;;;;;1037316;28;20504;-21
2024/01/16 00:21:24;;;;;;;0.50;0.50;;;;;;;;;;1037616;28;20032;-21
2024/01/16 00:21:54;;;;;;;1.55;1.45;;;;;;;;;;1037700;28;20562;-21
2024/01/16 00:22:25;;;;;;;4.97;2.85;;;;;;;;;;1037823;28;20022;-21
2024/01/16 00:22:56;;;;;;;1.70;1.45;;;;;;;;;;1037729;28;20018;-21
2024/01/16 00:23:26;;;;;;;1.58;1.27;;;;;;;;;;1037649;28;20025;-21
2024/01/16 00:23:56;;;;;;;0.80;0.75;;;;;;;;;;1033374;28;20404;-21
2024/01/16 00:24:27;;;;;;;5.57;2.38;;;;;;;;;;1033176;28;20180;-21
2024/01/16 00:24:57;;;;;;;12.48;1.98;;;;;;;;;;1033245;28;20441;-21
2024/01/16 00:25:28;;;;;;;8.10;1.85;;;;;;;;;;1033500;28;20057;-21
2024/01/16 00:25:58;;;;;;;2.15;2.05;;;;;;;;;;1033321;28;20093;-21
2024/01/16 00:26:28;;;;;;;0.47;0.47;;;;;;;;;;1033266;28;20121;-21
2024/01/16 00:26:59;;;;;;;2.90;2.70;;;;;;;;;;1037859;28;20014;-21
2024/01/16 00:27:29;;;;;;;1.92;1.77;;;;;;;;;;1037939;28;20025;-21
2024/01/16 00:28:01;;;;;;;3.15;2.80;;;;;;;;;;1037790;28;20021;-21
2024/01/16 00:28:32;;;;;;;2.00;1.08;;;;;;;;;;1037714;28;20029;-21
2024/01/16 00:29:02;;;;;;;3.30;0.95;;;;;;;;;;1037884;28;20022;-21
2024/01/16 00:29:32;;;;;;;1.27;0.82;;;;;;;;;;1033439;28;20037;-21
2024/01/16 00:30:03;;;;;;;1.67;0.55;;;;;;;;;;1033424;28;20049;-21
2024/01/16 00:30:34;;;;;;;0.75;0.63;;;;;;;;;;1033252;28;20026;-21
2024/01/16 00:31:07;;;;;;;3.97;1.60;;;;;;;;;;1033468;28;20129;-21
2024/01/16 00:31:38;;;;;;;0.45;0.45;;;;;;;;;;1037612;28;20108;-21
2024/01/16 00:32:09;;;;;;;1.35;0.63;;;;;;;;;;1037722;28;20036;-21
2024/01/16 00:32:39;;;;;;;0.93;0.90;;;;;;;;;;1038429;28;20141;-21
2024/01/16 00:33:12;;;;;;;0.68;0.68;;;;;;;;;;1037933;28;20029;-21
2024/01/16 00:33:42;;;;;;;1.17;0.68;;;;;;;;;;1037835;28;20030;-22
2024/01/16 00:34:13;;;;;;;1.00;0.88;;;;;;;;;;1037764;28;20030;-21
2024/01/16 00:34:43;;;;;;;1.73;1.63;;;;;;;;;;1037820;28;20446;-21
2024/01/16 00:35:14;;;;;;;1.08;1.02;;;;;;;;;;1037800;28;20025;-21
2024/01/16 00:35:44;;;;;;;0.38;0.38;;;;;;;;;;1037434;28;20021;-21
2024/01/16 00:36:15;;;;;;;11.27;2.45;;;;;;;;;;1038090;28;20495;-21
2024/01/16 00:36:45;;;;;;;2.33;0.80;;;;;;;;;;1037769;28;20438;-21
2024/01/16 00:37:16;;;;;;;2.58;1.85;;;;;;;;;;1037765;28;20638;-21
2024/01/16 00:37:47;;;;;;;0.20;0.20;;;;;;;;;;1037629;28;20032;-21
2024/01/16 00:38:17;;;;;;;0.80;0.80;;;;;;;;;;1037752;28;20503;-21
2024/01/16 00:38:48;;;;;;;0.17;0.17;;;;;;;;;;1037613;28;20026;-21
2024/01/16 00:39:18;;;;;;;4.63;3.00;;;;;;;;;;1037690;28;20108;-21
2024/01/16 00:39:48;;;;;;;3.03;2.03;;;;;;;;;;1037884;28;20080;-21
2024/01/16 00:40:19;;;;;;;1.90;1.27;;;;;;;;;;1037655;28;20032;-21
2024/01/16 00:40:49;;;;;;;2.60;2.00;;;;;;;;;;1037389;28;20028;-21
2024/01/16 00:41:20;;;;;;;4.22;1.02;;;;;;;;;;1037630;28;20037;-21
2024/01/16 00:41:51;;;;;;;2.72;2.03;;;;;;;;;;1037609;28;20441;-21
2024/01/16 00:42:22;;;;;;;3.25;2.17;;;;;;;;;;1037809;28;20465;-21
2024/01/16 00:42:52;;;;;;;2.28;0.88;;;;;;;;;;1037862;28;20218;-21
2024/01/16 00:43:23;;;;;;;1.95;1.30;;;;;;;;;;1036788;28;20536;-21
2024/01/16 00:43:54;;;;;;;3.38;3.13;;;;;;;;;;1037487;28;20026;-22
2024/01/16 00:44:24;;;;;;;0.98;0.90;;;;;;;;;;1038164;28;20025;-21
2024/01/16 00:44:54;;;;;;;2.05;1.77;;;;;;;;;;1037769;28;20080;-21
2024/01/16 00:45:25;;;;;;;2.97;1.92;;;;;;;;;;1037437;28;20049;-21
2024/01/16 00:45:55;;;;;;;0.32;0.32;;;;;;;;;;1037941;28;20068;-21
2024/01/16 00:46:26;;;;;;;1.17;1.15;;;;;;;;;;1036491;28;20700;-21
2024/01/16 00:46:56;;;;;;;1.20;1.10;;;;;;;;;;1036990;28;20415;-21
2024/01/16 00:47:27;;;;;;;1.60;0.93;;;;;;;;;;1037810;28;20488;-21
2024/01/16 00:47:58;;;;;;;0.40;0.40;;;;;;;;;;1037935;28;20052;-21
2024/01/16 00:48:28;;;;;;;3.67;2.42;;;;;;;;;;1037613;28;20468;-21
2024/01/16 00:48:59;;;;;;;1.30;0.93;;;;;;;;;;1037479;28;20120;-21
2024/01/16 00:49:29;;;;;;;2.13;1.80;;;;;;;;;;1036764;28;20021;-21
2024/01/16 00:50:01;;;;;;;0.57;0.55;;;;;;;;;;1037548;28;20017;-21
2024/01/16 00:50:31;;;;;;;0.20;0.20;;;;;;;;;;1037199;28;20113;-21
2024/01/16 00:51:02;;;;;;;0.43;0.43;;;;;;;;;;1037460;28;20076;-21
2024/01/16 00:51:32;;;;;;;0.73;0.73;;;;;;;;;;1037560;28;20029;-21
2024/01/16 00:52:03;;;;;;;1.92;1.75;;;;;;;;;;1037631;28;20040;-21
2024/01/16 00:52:33;;;;;;;0.70;0.70;;;;;;;;;;1037613;28;20026;-21
2024/01/16 00:53:04;;;;;;;0.65;0.65;;;;;;;;;;1037718;28;20032;-21
2024/01/16 00:53:39;;;;;;;3.00;2.80;;;;;;;;;;1033315;28;20026;-21
2024/01/16 00:54:10;;;;;;;2.10;2.00;;;;;;;;;;1033063;28;20054;-21
2024/01/16 00:54:41;;;;;;;1.13;1.02;;;;;;;;;;1033458;28;20029;-21
2024/01/16 00:55:12;;;;;;;0.22;0.22;;;;;;;;;;1034319;28;20022;-21
2024/01/16 00:55:42;;;;;;;3.10;2.15;;;;;;;;;;1037264;28;20485;-21
2024/01/16 00:56:13;;;;;;;0.28;0.28;;;;;;;;;;1037645;28;20022;-21
2024/01/16 00:56:43;;;;;;;0.70;0.70;;;;;;;;;;1037236;28;20029;-21
2024/01/16 00:57:16;;;;;;;1.25;0.98;;;;;;;;;;1037820;28;20025;-22
2024/01/16 00:57:46;;;;;;;1.02;1.02;;;;;;;;;;1037619;28;20638;-21
2024/01/16 00:58:17;;;;;;;0.25;0.25;;;;;;;;;;1037697;28;20036;-21
2024/01/16 00:58:47;;;;;;;0.80;0.75;;;;;;;;;;1032971;28;20030;-21
2024/01/16 00:59:17;;;;;;;3.20;3.00;;;;;;;;;;1033067;28;20608;-21
2024/01/16 00:59:48;;;;;;;6.05;0.77;;;;;;;;;;1033442;28;20109;-21
2024/01/16 01:00:19;;;;;;;1.45;1.35;;;;;;;;;;1033017;28;20095;-21
2024/01/16 01:00:49;;;;;;;1.50;1.40;;;;;;;;;;1034073;28;20081;-21
2024/01/16 01:01:20;;;;;;;5.05;3.63;;;;;;;;;;1037696;28;20385;-21
2024/01/16 01:01:50;;;;;;;1.02;0.93;;;;;;;;;;1038210;28;20151;-21
2024/01/16 01:02:21;;;;;;;2.42;1.60;;;;;;;;;;1037575;28;20478;-21
2024/01/16 01:02:51;;;;;;;4.95;0.90;;;;;;;;;;1037540;28;20025;-21
2024/01/16 01:03:21;;;;;;;0.15;0.15;;;;;;;;;;1038837;28;20112;-21
2024/01/16 01:03:52;;;;;;;2.35;2.17;;;;;;;;;;1037150;28;20094;-21
2024/01/16 01:04:22;;;;;;;6.10;2.28;;;;;;;;;;1037422;28;20022;-21
2024/01/16 01:04:53;;;;;;;0.20;0.20;;;;;;;;;;1037672;28;20025;-21
2024/01/16 01:05:28;;;;;;;0.50;0.50;;;;;;;;;;1037194;28;20021;-21
2024/01/16 01:05:59;;;;;;;0.32;0.32;;;;;;;;;;1037482;28;20065;-21
2024/01/16 01:06:30;;;;;;;6.22;3.45;;;;;;;;;;1037282;28;20021;-21
2024/01/16 01:07:00;;;;;;;2.15;1.85;;;;;;;;;;1037549;28;20022;-21
2024/01/16 01:07:31;;;;;;;6.10;2.72;;;;;;;;;;1036739;28;20455;-21
2024/01/16 01:08:01;;;;;;;0.28;0.28;;;;;;;;;;1038264;28;20096;-21
2024/01/16 01:08:31;;;;;;;1.50;0.77;;;;;;;;;;1037686;28;20108;-21
2024/01/16 01:09:02;;;;;;;3.55;2.35;;;;;;;;;;1037566;28;20502;-22
2024/01/16 01:09:33;;;;;;;1.88;1.77;;;;;;;;;;1037350;28;20040;-22
2024/01/16 01:10:03;;;;;;;2.78;2.47;;;;;;;;;;1037724;28;20378;-22
2024/01/16 01:10:34;;;;;;;0.68;0.68;;;;;;;;;;1037300;28;20028;-22
2024/01/16 01:11:04;;;;;;;1.60;0.57;;;;;;;;;;1038703;28;20151;-22
2024/01/16 01:11:35;;;;;;;1.30;1.02;;;;;;;;;;1037062;28;20022;-22
2024/01/16 01:12:05;;;;;;;1.50;1.40;;;;;;;;;;1036876;28;20112;-22
2024/01/16 01:12:36;;;;;;;0.75;0.75;;;;;;;;;;1036821;28;20029;-22
2024/01/16 01:13:06;;;;;;;2.85;1.20;;;;;;;;;;1037239;28;20013;-22
2024/01/16 01:13:37;;;;;;;1.63;1.50;;;;;;;;;;1037280;28;20027;-22
2024/01/16 01:14:07;;;;;;;2.33;2.13;;;;;;;;;;1036425;28;20061;-22
2024/01/16 01:14:37;;;;;;;6.40;3.22;;;;;;;;;;1036858;28;20362;-22
2024/01/16 01:15:08;;;;;;;0.68;0.68;;;;;;;;;;1037574;28;20072;-22
2024/01/16 01:15:38;;;;;;;4.93;2.17;;;;;;;;;;1037490;28;20025;-22
2024/01/16 01:16:09;;;;;;;0.40;0.40;;;;;;;;;;1036803;28;20462;-22
2024/01/16 01:16:39;;;;;;;0.25;0.25;;;;;;;;;;1036875;28;20031;-22
2024/01/16 01:17:10;;;;;;;3.50;1.25;;;;;;;;;;1037297;28;20030;-22
2024/01/16 01:17:41;;;;;;;0.88;0.88;;;;;;;;;;1037476;28;20068;-22
2024/01/16 01:18:11;;;;;;;2.13;1.20;;;;;;;;;;1037058;28;20112;-22
2024/01/16 01:18:42;;;;;;;1.65;1.55;;;;;;;;;;1037151;28;20022;-22
2024/01/16 01:19:12;;;;;;;1.80;1.05;;;;;;;;;;1037354;28;20025;-22
2024/01/16 01:19:43;;;;;;;1.05;0.98;;;;;;;;;;1037527;28;20021;-22
2024/01/16 01:20:13;;;;;;;4.72;1.55;;;;;;;;;;1037053;28;20021;-22
2024/01/16 01:20:44;;;;;;;0.85;0.85;;;;;;;;;;1036020;28;20115;-22
2024/01/16 01:21:14;;;;;;;1.85;1.75;;;;;;;;;;1036950;28;20026;-22
2024/01/16 01:21:45;;;;;;;1.40;1.33;;;;;;;;;;1037225;28;20028;-22
2024/01/16 01:22:15;;;;;;;0.93;0.90;;;;;;;;;;1037740;28;20017;-23
2024/01/16 01:22:46;;;;;;;3.45;2.67;;;;;;;;;;1037208;28;20029;-22
2024/01/16 01:23:16;;;;;;;1.00;0.38;;;;;;;;;;1037289;28;20022;-23
2024/01/16 01:23:47;;;;;;;2.65;0.82;;;;;;;;;;1032903;28;20099;-22
2024/01/16 01:24:17;;;;;;;3.88;1.20;;;;;;;;;;1031895;28;20120;-22
2024/01/16 01:24:48;;;;;;;1.92;1.80;;;;;;;;;;1010691;28;20098;-22
2024/01/16 01:25:18;;;;;;;3.42;1.98;;;;;;;;;;1036704;28;20071;-22
2024/01/16 01:25:48;;;;;;;2.17;1.52;;;;;;;;;;1039996;28;20103;-22
2024/01/16 01:26:19;;;;;;;2.95;2.65;;;;;;;;;;1038367;28;20025;-21
2024/01/16 01:26:49;;;;;;;1.25;1.15;;;;;;;;;;1037023;28;20026;-22
2024/01/16 01:27:20;;;;;;;14.70;5.20;;;;;;;;;;1036917;28;20029;-22
2024/01/16 01:27:50;;;;;;;0.82;0.82;;;;;;;;;;1037290;28;20026;-22
2024/01/16 01:28:21;;;;;;;2.60;1.05;;;;;;;;;;1037021;28;20025;-22
2024/01/16 01:28:52;;;;;;;2.13;1.20;;;;;;;;;;1037144;28;20029;-22
2024/01/16 01:29:22;;;;;;;2.90;2.28;;;;;;;;;;1036542;28;20567;-22
2024/01/16 01:29:53;;;;;;;2.63;1.10;;;;;;;;;;1038014;28;20083;-22
2024/01/16 01:30:23;;;;;;;4.45;3.03;;;;;;;;;;1036689;28;20056;-22
2024/01/16 01:30:53;;;;;;;2.95;2.10;;;;;;;;;;1037112;28;20057;-22
2024/01/16 01:31:24;;;;;;;1.00;0.85;;;;;;;;;;1037234;28;20066;-22
2024/01/16 01:31:55;;;;;;;1.38;0.85;;;;;;;;;;1037940;28;20030;-22
2024/01/16 01:32:26;;;;;;;0.85;0.77;;;;;;;;;;1036859;28;20112;-22
2024/01/16 01:32:57;;;;;;;3.83;2.88;;;;;;;;;;1037481;28;20484;-22
2024/01/16 01:33:28;;;;;;;3.50;1.27;;;;;;;;;;1037074;28;20112;-22
2024/01/16 01:33:59;;;;;;;1.70;1.25;;;;;;;;;;1036983;28;20503;-22
2024/01/16 01:34:29;;;;;;;8.23;3.95;;;;;;;;;;1036644;28;20069;-22
2024/01/16 01:35:00;;;;;;;1.05;1.00;;;;;;;;;;1037115;28;20048;-22
2024/01/16 01:35:30;;;;;;;0.95;0.95;;;;;;;;;;1036800;28;20021;-22
2024/01/16 01:36:01;;;;;;;0.40;0.40;;;;;;;;;;1037053;28;20049;-22
2024/01/16 01:36:31;;;;;;;0.93;0.93;;;;;;;;;;1036945;28;20026;-22
2024/01/16 01:37:01;;;;;;;6.18;2.63;;;;;;;;;;1037072;28;20019;-22
2024/01/16 01:37:32;;;;;;;6.07;2.85;;;;;;;;;;1037258;28;20535;-22
2024/01/16 01:38:03;;;;;;;0.60;0.60;;;;;;;;;;1036561;28;20136;-22
2024/01/16 01:38:33;;;;;;;3.53;3.22;;;;;;;;;;1036409;28;20018;-22
2024/01/16 01:39:03;;;;;;;3.78;1.60;;;;;;;;;;1037069;28;20025;-22
2024/01/16 01:39:34;;;;;;;0.35;0.35;;;;;;;;;;1037474;28;20025;-22
2024/01/16 01:40:05;;;;;;;0.95;0.93;;;;;;;;;;1037908;28;20633;-22
2024/01/16 01:40:35;;;;;;;1.83;1.42;;;;;;;;;;1037049;28;20017;-22
2024/01/16 01:41:05;;;;;;;8.25;4.72;;;;;;;;;;1037314;28;20029;-22
2024/01/16 01:41:36;;;;;;;3.50;3.30;;;;;;;;;;1037191;28;20039;-22
2024/01/16 01:42:06;;;;;;;0.38;0.32;;;;;;;;;;1036968;28;20385;-22
2024/01/16 01:42:37;;;;;;;1.95;1.85;;;;;;;;;;1037103;28;20031;-22
2024/01/16 01:43:37;;;;;;;1.42;1.33;;;;;;;;;;1036765;28;20075;-22
2024/01/16 01:44:07;;;;;;;0.63;0.63;;;;;;;;;;1020871;28;20138;-23
2024/01/16 01:44:38;;;;;;;0.85;0.85;;;;;;;;;;1036846;28;20489;-22
2024/01/16 01:45:09;;;;;;;0.20;0.20;;;;;;;;;;1036974;28;20424;-22
2024/01/16 01:45:39;;;;;;;2.75;2.42;;;;;;;;;;1037028;28;20040;-22
2024/01/16 01:46:12;;;;;;;1.98;1.85;;;;;;;;;;1037659;28;20485;-22
2024/01/16 01:46:44;;;;;;;0.75;0.75;;;;;;;;;;1036365;28;20438;-22
2024/01/16 01:47:14;;;;;;;0.43;0.43;;;;;;;;;;1037211;28;20025;-22
2024/01/16 01:47:45;;;;;;;0.30;0.30;;;;;;;;;;1036478;28;20125;-22
2024/01/16 01:48:15;;;;;;;0.52;0.52;;;;;;;;;;1036810;28;20280;-22
2024/01/16 01:48:47;;;;;;;1.95;1.20;;;;;;;;;;1035622;28;20386;-22
2024/01/16 01:49:18;;;;;;;1.55;1.45;;;;;;;;;;1036006;28;20510;-22
2024/01/16 01:49:48;;;;;;;2.33;1.70;;;;;;;;;;1035972;28;20025;-22
2024/01/16 01:50:19;;;;;;;1.27;1.20;;;;;;;;;;1035807;28;20580;-22
2024/01/16 01:50:49;;;;;;;3.78;3.45;;;;;;;;;;1031308;28;20029;-22
2024/01/16 01:51:20;;;;;;;1.95;1.48;;;;;;;;;;1032389;28;20030;-22
2024/01/16 01:51:51;;;;;;;0.52;0.52;;;;;;;;;;1032400;28;20022;-22
2024/01/16 01:52:21;;;;;;;2.30;1.65;;;;;;;;;;1032709;28;20018;-22
2024/01/16 01:52:52;;;;;;;4.07;3.65;;;;;;;;;;1037048;28;20022;-22
2024/01/16 01:53:23;;;;;;;1.13;1.10;;;;;;;;;;1038576;28;20037;-22
2024/01/16 01:53:54;;;;;;;6.38;1.98;;;;;;;;;;1037410;28;20154;-22
2024/01/16 01:54:24;;;;;;;1.00;1.00;;;;;;;;;;1033107;28;20422;-22
2024/01/16 01:54:55;;;;;;;8.93;1.90;;;;;;;;;;1032652;28;20030;-22
2024/01/16 01:55:25;;;;;;;4.20;1.52;;;;;;;;;;1029676;28;20030;-22
2024/01/16 01:55:56;;;;;;;1.88;1.73;;;;;;;;;;1033629;28;20084;-22
2024/01/16 01:56:27;;;;;;;2.15;1.95;;;;;;;;;;1034708;28;20056;-22
2024/01/16 01:56:58;;;;;;;4.45;2.17;;;;;;;;;;1037701;28;20405;-22
2024/01/16 01:57:28;;;;;;;2.15;1.67;;;;;;;;;;1037652;28;20116;-22
2024/01/16 01:57:59;;;;;;;3.03;2.03;;;;;;;;;;1037783;28;20025;-22
2024/01/16 01:58:30;;;;;;;2.03;1.38;;;;;;;;;;1036257;28;20076;-22
2024/01/16 01:59:01;;;;;;;2.00;0.95;;;;;;;;;;1034275;28;20123;-22
2024/01/16 01:59:32;;;;;;;0.93;0.90;;;;;;;;;;1034917;28;20052;-22
2024/01/16 02:00:04;;;;;;;1.83;1.10;;;;;;;;;;1035626;28;20564;-22
2024/01/16 02:00:35;;;;;;;3.60;3.05;;;;;;;;;;1031215;28;20037;-22
2024/01/16 02:01:07;;;;;;;2.05;1.08;;;;;;;;;;1031083;28;20799;-22
2024/01/16 02:01:38;;;;;;;1.60;1.35;;;;;;;;;;1030692;28;20026;-22
2024/01/16 02:02:08;;;;;;;1.48;1.30;;;;;;;;;;1032922;28;20025;-22
2024/01/16 02:02:42;;;;;;;2.70;2.22;;;;;;;;;;1035307;28;20026;-22
2024/01/16 02:03:13;;;;;;;2.65;1.48;;;;;;;;;;1035207;28;20451;-22
2024/01/16 02:03:44;;;;;;;1.08;1.00;;;;;;;;;;1036520;28;20022;-22
2024/01/16 02:04:15;;;;;;;4.18;3.13;;;;;;;;;;1037232;28;20071;-22
2024/01/16 02:04:46;;;;;;;5.15;1.80;;;;;;;;;;1036214;28;20132;-22
2024/01/16 02:05:17;;;;;;;0.82;0.60;;;;;;;;;;1036399;28;20032;-22
2024/01/16 02:05:48;;;;;;;6.18;2.40;;;;;;;;;;1033328;28;20570;-22
2024/01/16 02:06:18;;;;;;;0.50;0.50;;;;;;;;;;1037008;28;20399;-22
2024/01/16 02:06:48;;;;;;;1.67;1.00;;;;;;;;;;1036658;28;20400;-22
2024/01/16 02:07:19;;;;;;;2.10;1.90;;;;;;;;;;1037483;28;20508;-22
2024/01/16 02:07:49;;;;;;;0.88;0.77;;;;;;;;;;1037032;28;20538;-22
2024/01/16 02:08:20;;;;;;;0.85;0.85;;;;;;;;;;1037625;28;20021;-22
2024/01/16 02:08:51;;;;;;;4.72;4.03;;;;;;;;;;1037590;28;20029;-22
2024/01/16 02:09:21;;;;;;;2.67;1.58;;;;;;;;;;1037162;28;20049;-22
2024/01/16 02:09:52;;;;;;;0.47;0.47;;;;;;;;;;1038533;28;20514;-22
2024/01/16 02:10:22;;;;;;;2.95;2.65;;;;;;;;;;1036010;28;20528;-22
2024/01/16 02:10:53;;;;;;;1.90;1.80;;;;;;;;;;1036599;28;20473;-22
2024/01/16 02:11:23;;;;;;;0.60;0.60;;;;;;;;;;1036246;28;20557;-22
2024/01/16 02:11:53;;;;;;;2.55;2.35;;;;;;;;;;1037019;28;20370;-22
2024/01/16 02:12:24;;;;;;;1.42;1.33;;;;;;;;;;1036365;28;20428;-22
2024/01/16 02:12:54;;;;;;;0.30;0.30;;;;;;;;;;1036681;28;20396;-22
2024/01/16 02:13:25;;;;;;;0.73;0.73;;;;;;;;;;1036325;28;20377;-22
2024/01/16 02:13:55;;;;;;;1.48;1.40;;;;;;;;;;1037537;28;20588;-22
2024/01/16 02:14:26;;;;;;;14.88;2.65;;;;;;;;;;1035942;28;20040;-22
2024/01/16 02:14:56;;;;;;;1.25;1.13;;;;;;;;;;1036741;28;20030;-22
2024/01/16 02:15:26;;;;;;;0.47;0.47;;;;;;;;;;1035896;28;20029;-22
2024/01/16 02:15:57;;;;;;;0.70;0.70;;;;;;;;;;1037448;28;20032;-22
2024/01/16 02:16:35;;;;;;;2.22;2.08;;;;;;;;;;1036264;28;20065;-22
2024/01/16 02:17:05;;;;;;;1.08;1.00;;;;;;;;;;1036003;28;20030;-22
2024/01/16 02:17:36;;;;;;;1.10;0.98;;;;;;;;;;1036440;28;20052;-22
2024/01/16 02:18:07;;;;;;;10.88;2.58;;;;;;;;;;1036755;28;20029;-22
2024/01/16 02:18:37;;;;;;;1.35;1.25;;;;;;;;;;1034914;28;20030;-22
2024/01/16 02:19:08;;;;;;;3.00;2.80;;;;;;;;;;1037024;28;20089;-22
2024/01/16 02:19:39;;;;;;;1.20;1.13;;;;;;;;;;1035843;28;20805;-22
2024/01/16 02:20:10;;;;;;;8.32;4.25;;;;;;;;;;1036721;28;20060;-22
2024/01/16 02:20:40;;;;;;;0.75;0.75;;;;;;;;;;1036499;28;20036;-22
2024/01/16 02:21:12;;;;;;;0.60;0.60;;;;;;;;;;1036261;28;20030;-22
2024/01/16 02:21:49;;;;;;;2.25;1.83;;;;;;;;;;1036590;28;20109;-22
2024/01/16 02:22:21;;;;;;;0.38;0.38;;;;;;;;;;1036825;28;20018;-22
2024/01/16 02:22:54;;;;;;;1.42;1.33;;;;;;;;;;1035548;28;20021;-22
2024/01/16 02:23:28;;;;;;;5.53;3.15;;;;;;;;;;1034673;28;20116;-22
2024/01/16 02:23:58;;;;;;;1.58;1.48;;;;;;;;;;1036004;28;20080;-22
2024/01/16 02:24:29;;;;;;;12.35;2.83;;;;;;;;;;1035266;28;20481;-22
2024/01/16 02:24:59;;;;;;;0.40;0.40;;;;;;;;;;1036743;28;20033;-22
2024/01/16 02:25:30;;;;;;;1.08;0.90;;;;;;;;;;1034847;28;20014;-21
2024/01/16 02:26:01;;;;;;;4.45;2.15;;;;;;;;;;1035387;28;20053;-21
2024/01/16 02:26:32;;;;;;;1.50;1.42;;;;;;;;;;1035503;28;20396;-23
2024/01/16 02:27:03;;;;;;;1.40;1.30;;;;;;;;;;1037354;28;20021;-21
2024/01/16 02:27:33;;;;;;;0.35;0.35;;;;;;;;;;1036275;28;20505;-21
2024/01/16 02:28:04;;;;;;;1.25;1.25;;;;;;;;;;1036944;28;20473;-21
2024/01/16 02:28:34;;;;;;;0.98;0.98;;;;;;;;;;1037416;28;20032;-21
2024/01/16 02:29:05;;;;;;;9.40;3.05;;;;;;;;;;1036110;28;20025;-21
2024/01/16 02:29:40;;;;;;;2.17;1.67;;;;;;;;;;1036313;28;20036;-21
2024/01/16 02:30:11;;;;;;;0.90;0.90;;;;;;;;;;1037819;28;20346;-21
2024/01/16 02:30:45;;;;;;;1.75;1.65;;;;;;;;;;1036379;28;20060;-21
2024/01/16 02:31:16;;;;;;;0.50;0.50;;;;;;;;;;1037430;28;20433;-21
2024/01/16 02:31:47;;;;;;;0.75;0.75;;;;;;;;;;1035817;28;20021;-21
2024/01/16 02:32:17;;;;;;;0.70;0.70;;;;;;;;;;1036638;28;20057;-21
2024/01/16 02:32:49;;;;;;;5.03;2.72;;;;;;;;;;1036518;28;20068;-20
2024/01/16 02:33:21;;;;;;;0.95;0.77;;;;;;;;;;1033311;28;20064;-20
2024/01/16 02:33:51;;;;;;;2.53;2.20;;;;;;;;;;1033806;28;20026;-20
2024/01/16 02:34:23;;;;;;;1.25;1.20;;;;;;;;;;1030745;28;20506;-20
2024/01/16 02:34:53;;;;;;;2.40;2.20;;;;;;;;;;1031963;28;20079;-20
2024/01/16 02:35:24;;;;;;;1.75;0.98;;;;;;;;;;1030607;28;20026;-20
2024/01/16 02:35:55;;;;;;;3.92;1.42;;;;;;;;;;1031886;28;20029;-20
2024/01/16 02:36:25;;;;;;;0.40;0.40;;;;;;;;;;1031896;28;20022;-20
2024/01/16 02:36:56;;;;;;;11.10;2.03;;;;;;;;;;1024208;28;20037;-20
2024/01/16 02:37:26;;;;;;;1.13;1.05;;;;;;;;;;1024881;28;20027;-20
2024/01/16 02:37:57;;;;;;;15.90;3.60;;;;;;;;;;1025322;28;20042;-20
2024/01/16 02:38:28;;;;;;;7.28;1.65;;;;;;;;;;1025079;28;20023;-20
2024/01/16 02:38:59;;;;;;;13.98;1.10;;;;;;;;;;1032502;28;20497;-20
2024/01/16 02:39:30;;;;;;;0.73;0.63;;;;;;;;;;1032808;28;20029;-20
2024/01/16 02:40:05;;;;;;;2.03;1.88;;;;;;;;;;1032741;28;20029;-20
2024/01/16 02:40:36;;;;;;;1.55;1.45;;;;;;;;;;1030365;28;20125;-20
2024/01/16 02:41:07;;;;;;;0.38;0.38;;;;;;;;;;1031039;28;20030;-21
2024/01/16 02:41:37;;;;;;;1.15;1.13;;;;;;;;;;1029369;28;20092;-21
2024/01/16 02:42:08;;;;;;;0.30;0.30;;;;;;;;;;1027853;28;20026;-21
2024/01/16 02:42:39;;;;;;;2.03;1.85;;;;;;;;;;1029881;28;20023;-21
2024/01/16 02:43:10;;;;;;;0.30;0.30;;;;;;;;;;1028100;28;21274;-21
2024/01/16 02:43:41;;;;;;;3.45;3.15;;;;;;;;;;1031083;28;20037;-21
2024/01/16 02:44:12;;;;;;;2.50;2.30;;;;;;;;;;1029995;28;20038;-21
2024/01/16 02:44:42;;;;;;;3.03;2.28;;;;;;;;;;1030482;28;20053;-21
2024/01/16 02:45:13;;;;;;;1.48;1.40;;;;;;;;;;1032822;28;20041;-20
2024/01/16 02:45:44;;;;;;;12.15;2.63;;;;;;;;;;1031893;28;20053;-21
2024/01/16 02:46:15;;;;;;;0.47;0.47;;;;;;;;;;1035911;28;20088;-21
2024/01/16 02:46:45;;;;;;;0.10;0.10;;;;;;;;;;1035782;28;20039;-21
2024/01/16 02:47:16;;;;;;;3.97;1.65;;;;;;;;;;1036783;28;20082;-21
2024/01/16 02:47:46;;;;;;;2.22;2.03;;;;;;;;;;1035814;28;20032;-21
2024/01/16 02:48:17;;;;;;;0.90;0.90;;;;;;;;;;1032244;28;20041;-20
2024/01/16 02:48:48;;;;;;;0.98;0.90;;;;;;;;;;1030924;28;20124;-21
2024/01/16 02:49:20;;;;;;;1.48;1.17;;;;;;;;;;1031400;28;20034;-21
2024/01/16 02:49:53;;;;;;;0.43;0.43;;;;;;;;;;1033681;28;20046;-20
2024/01/16 02:50:24;;;;;;;1.17;0.93;;;;;;;;;;1033121;28;20922;-21
2024/01/16 02:50:55;;;;;;;5.93;2.67;;;;;;;;;;1035866;28;20033;-21
2024/01/16 02:51:25;;;;;;;6.82;2.35;;;;;;;;;;1036073;28;20075;-20
2024/01/16 02:51:56;;;;;;;1.17;0.88;;;;;;;;;;1035710;28;20043;-20
2024/01/16 02:52:27;;;;;;;0.80;0.80;;;;;;;;;;1035744;28;20033;-21
2024/01/16 02:52:57;;;;;;;1.40;0.80;;;;;;;;;;1032334;28;20034;-21
2024/01/16 02:53:30;;;;;;;0.40;0.40;;;;;;;;;;1032290;28;20033;-20
2024/01/16 02:54:07;;;;;;;1.75;1.38;;;;;;;;;;1031423;28;20190;-20
2024/01/16 02:54:38;;;;;;;3.72;2.65;;;;;;;;;;1030632;28;20271;-21
2024/01/16 02:55:09;;;;;;;7.30;3.33;;;;;;;;;;1030441;28;20095;-21
2024/01/16 02:55:40;;;;;;;2.05;1.95;;;;;;;;;;1018209;28;20026;-20
2024/01/16 02:56:15;;;;;;;1.45;1.35;;;;;;;;;;1027115;28;20041;-21
2024/01/16 02:56:52;;;;;;;0.45;0.45;;;;;;;;;;1032791;28;20509;-21
2024/01/16 02:57:36;;;;;;;2.67;1.77;;;;;;;;;;1033534;28;20618;-22
2024/01/16 02:58:14;;;;;;;1.98;1.85;;;;;;;;;;1031744;28;20038;-20
2024/01/16 02:58:54;;;;;;;1.85;1.17;;;;;;;;;;1028936;28;20061;-21
2024/01/16 02:59:30;;;;;;;2.47;1.48;;;;;;;;;;1029793;28;20057;-22
2024/01/16 03:00:04;;;;;;;2.03;1.92;;;;;;;;;;1032421;28;20671;-21
2024/01/16 03:00:38;;;;;;;2.80;2.28;;;;;;;;;;1030314;28;20061;-21
2024/01/16 03:01:13;;;;;;;2.72;2.53;;;;;;;;;;1031346;28;20066;-21
2024/01/16 03:01:47;;;;;;;3.40;1.13;;;;;;;;;;1029014;28;20030;-23
2024/01/16 03:02:20;;;;;;;0.93;0.93;;;;;;;;;;1024341;28;20464;-22
2024/01/16 03:02:52;;;;;;;1.83;1.20;;;;;;;;;;1024234;28;20518;-20
2024/01/16 03:03:24;;;;;;;1.95;1.60;;;;;;;;;;1025004;28;20389;-20
2024/01/16 03:03:59;;;;;;;4.97;2.05;;;;;;;;;;1025826;28;20030;-20
2024/01/16 03:04:32;;;;;;;4.47;2.15;;;;;;;;;;1027534;28;20030;-22
2024/01/16 03:05:05;;;;;;;1.00;1.00;;;;;;;;;;1032553;28;20421;-22
2024/01/16 03:05:36;;;;;;;13.57;2.05;;;;;;;;;;1031268;28;20030;-20
2024/01/16 03:06:07;;;;;;;1.58;1.30;;;;;;;;;;1032449;28;20084;-22
2024/01/16 03:06:37;;;;;;;1.10;1.05;;;;;;;;;;1030945;28;20023;-20